Time;durP1;ratioP1;P1;durP2;ratioP2;P2;SDS_P1;SDS_P2;PMS_P1;PMS_P2;Temp;Humidity;BMP_temperature;BMP_pressure;BME280_temperature;BME280_humidity;BME280_pressure;Samples;Min_cycle;Max_cycle;Signal;HPM_P1;HPM_P2
2022/02/02 00:02:34;;;;;;;12.63;3.47;;;;;;;20.76;36.77;101076.53;5017496;28;20049;-63
2022/02/02 00:05:15;;;;;;;9.68;2.67;;;;;;;20.73;36.75;101079.56;5018211;28;20045;-63
2022/02/02 00:08:04;;;;;;;15.98;4.30;;;;;;;20.70;36.79;101082.56;5016747;28;20357;-64
2022/02/02 00:13:54;;;;;;;16.27;3.88;;;;;;;20.66;36.76;101094.53;5020049;28;20061;-64
2022/02/02 00:15:56;;;;;;;16.42;3.45;;;;;;;20.60;36.84;101101.31;5023111;28;20049;-64
2022/02/02 00:21:02;;;;;;;14.32;3.22;;;;;;;20.53;36.86;101110.97;5024450;28;20478;-65
2022/02/02 00:23:34;;;;;;;15.85;3.20;;;;;;;20.51;36.93;101103.22;5020586;28;20037;-63
2022/02/02 00:26:06;;;;;;;12.77;2.97;;;;;;;20.53;36.81;101108.34;5022908;28;20673;-65
2022/02/02 00:28:36;;;;;;;13.55;3.70;;;;;;;20.48;36.76;101102.75;5022725;28;20562;-64
2022/02/02 00:31:06;;;;;;;14.18;3.50;;;;;;;20.52;36.83;101120.75;5023366;28;20509;-64
2022/02/02 00:33:38;;;;;;;;;;;;;;;20.50;36.75;101103.41;5021149;28;20046;-64
2022/02/02 00:36:09;;;;;;;14.90;3.47;;;;;;;20.46;36.79;101105.56;5022270;28;20019;-64
2022/02/02 00:38:34;;;;;;;11.63;3.10;;;;;;;20.45;36.80;101105.75;5021618;28;20033;-64
2022/02/02 00:41:00;;;;;;;13.82;3.22;;;;;;;20.41;36.82;101097.34;5024573;28;20521;-64
2022/02/02 00:43:26;;;;;;;10.35;3.00;;;;;;;20.42;36.85;101087.59;5017317;28;20138;-64
2022/02/02 00:45:51;;;;;;;9.63;2.80;;;;;;;20.41;36.81;101094.69;5019921;28;20045;-64
2022/02/02 00:48:19;;;;;;;12.13;3.25;;;;;;;20.40;36.71;101086.91;5016964;28;20060;-64
2022/02/02 00:50:45;;;;;;;12.90;3.42;;;;;;;20.38;36.82;101087.09;5019262;28;20037;-63
2022/02/02 00:53:13;;;;;;;12.20;3.15;;;;;;;20.32;36.88;101094.91;5029494;28;20124;-64
2022/02/02 00:55:40;;;;;;;12.57;3.85;;;;;;;20.31;36.93;101093.28;5019330;28;20041;-63
2022/02/02 00:58:06;;;;;;;12.93;3.50;;;;;;;20.27;36.81;101082.19;5022467;28;20053;-63
2022/02/02 01:00:31;;;;;;;10.55;3.80;;;;;;;20.27;36.82;101098.06;5019808;28;20033;-64
2022/02/02 01:02:57;;;;;;;14.85;2.95;;;;;;;20.26;36.91;101077.09;5019636;28;20514;-64
2022/02/02 01:05:22;;;;;;;16.20;3.20;;;;;;;20.28;36.81;101088.31;5018576;28;20034;-64
2022/02/02 01:12:49;;;;;;;10.35;2.63;;;;;;;20.25;36.89;101101.88;5022038;28;20042;-64
2022/02/02 01:21:00;;;;;;;14.60;3.53;;;;;;;20.14;36.90;101119.00;5014180;28;20505;-64
2022/02/02 01:28:40;;;;;;;12.27;2.85;;;;;;;20.09;36.86;101135.34;5022008;28;20043;-64
2022/02/02 01:31:07;;;;;;;20.38;3.72;;;;;;;20.07;36.80;101128.59;5013728;28;20045;-64
2022/02/02 01:33:33;;;;;;;14.70;3.33;;;;;;;20.08;36.94;101136.34;5024148;28;20053;-64
2022/02/02 01:35:59;;;;;;;15.07;3.05;;;;;;;19.91;36.88;101132.97;5020763;28;20065;-63
2022/02/02 01:38:28;;;;;;;12.57;3.35;;;;;;;20.05;36.83;101149.09;5017382;28;20042;-65
2022/02/02 01:41:00;;;;;;;15.18;3.35;;;;;;;20.05;36.74;101157.84;5019737;28;20657;-64
2022/02/02 01:43:36;;;;;;;11.90;2.88;;;;;;;20.05;36.73;101151.75;5017555;28;20045;-63
2022/02/02 01:46:10;;;;;;;12.98;2.28;;;;;;;19.97;36.83;101167.66;5022772;28;20042;-64
2022/02/02 01:56:15;;;;;;;14.85;2.90;;;;;;;19.96;36.84;101174.78;5021741;28;20447;-64
2022/02/02 02:01:19;;;;;;;9.00;3.20;;;;;;;19.96;36.84;101185.34;5021239;28;20041;-63
2022/02/02 02:03:45;;;;;;;13.13;3.30;;;;;;;19.91;36.87;101191.13;5017272;28;20064;-63
2022/02/02 02:06:11;;;;;;;11.43;2.97;;;;;;;19.92;36.86;101186.66;5022726;28;20128;-63
2022/02/02 02:08:40;;;;;;;9.38;2.85;;;;;;;19.89;36.81;101176.44;5016746;28;20139;-63
2022/02/02 02:11:08;;;;;;;12.18;2.83;;;;;;;19.82;36.80;101163.09;5024661;28;20041;-64
2022/02/02 02:16:22;;;;;;;12.13;2.80;;;;;;;19.81;36.80;101177.31;5021283;28;20318;-64
2022/02/02 02:18:48;;;;;;;8.88;2.75;;;;;;;19.83;36.86;101190.34;5020435;28;20033;-63
2022/02/02 02:21:16;;;;;;;13.88;2.80;;;;;;;19.86;36.77;101193.47;5018138;28;20510;-63
2022/02/02 02:23:44;;;;;;;13.77;2.97;;;;;;;19.79;36.89;101181.94;5013503;28;20185;-64
2022/02/02 02:26:11;;;;;;;8.25;2.17;;;;;;;19.81;36.82;101179.13;5035227;28;20037;-64
2022/02/02 02:28:50;;;;;;;7.10;2.60;;;;;;;19.82;36.80;101204.56;5015422;28;20553;-64
2022/02/02 02:31:30;;;;;;;9.52;2.50;;;;;;;19.80;36.71;101188.88;5020599;28;20064;-64
2022/02/02 02:34:23;;;;;;;11.55;3.22;;;;;;;19.66;36.84;101164.97;5020555;28;20067;-63
2022/02/02 03:30:03;;;;;;;11.63;2.78;;;;;;;19.49;36.86;101249.50;5039034;28;20049;-63
2022/02/02 03:51:24;;;;;;;13.35;3.15;;;;;;;19.41;36.88;101275.94;5024552;28;20451;-64
2022/02/02 03:59:26;;;;;;;9.20;2.47;;;;;;;19.41;36.66;101273.28;5022443;28;20045;-64
2022/02/02 04:04:52;;;;;;;15.93;3.85;;;;;;;19.45;36.72;101261.41;5020575;28;20149;-64
2022/02/02 04:07:24;;;;;;;7.78;2.55;;;;;;;19.44;36.61;101275.59;5030065;28;20132;-63
2022/02/02 04:09:50;;;;;;;12.60;3.15;;;;;;;19.40;36.84;101273.47;5022113;28;20076;-63
2022/02/02 04:15:42;;;;;;;14.82;2.40;;;;;;;19.40;36.76;101281.38;5019225;28;20507;-65
2022/02/02 04:37:32;;;;;;;14.30;2.53;;;;;;;19.33;36.96;101308.44;5025589;28;20068;-63
2022/02/02 04:53:58;;;;;;;11.55;2.80;;;;;;;19.16;36.80;101322.63;5036986;28;20133;-64
2022/02/02 04:59:27;;;;;;;12.45;2.67;;;;;;;19.24;36.77;101349.03;5027890;28;20411;-64
2022/02/02 05:07:38;;;;;;;14.90;3.15;;;;;;;19.19;36.89;101361.06;5017404;28;20521;-64
2022/02/02 05:10:28;;;;;;;10.98;2.80;;;;;;;19.17;36.97;101355.94;5019990;28;20128;-63
2022/02/02 05:13:57;;;;;;;9.35;2.95;;;;;;;19.21;37.00;101382.84;5023640;28;20053;-64
2022/02/02 05:53:23;;;;;;;10.68;2.72;;;;;;;20.79;35.25;101421.09;5016671;28;20049;-64
2022/02/02 05:55:50;;;;;;;14.70;3.40;;;;;;;20.97;35.27;101418.19;5022612;28;20033;-63
2022/02/02 05:58:23;;;;;;;13.38;3.45;;;;;;;21.19;34.89;101416.63;5016489;28;20040;-63
2022/02/02 06:00:48;;;;;;;11.30;2.88;;;;;;;21.20;34.98;101423.56;5022164;28;20037;-64
2022/02/02 06:03:14;;;;;;;13.38;2.53;;;;;;;21.03;35.07;101420.16;5017668;28;20045;-64
2022/02/02 06:05:42;;;;;;;8.63;2.55;;;;;;;20.95;35.40;101425.50;5020248;28;20048;-64
2022/02/02 06:08:13;;;;;;;9.77;2.97;;;;;;;20.89;35.43;101422.72;5025575;28;20116;-64
2022/02/02 06:10:40;;;;;;;15.60;3.50;;;;;;;20.77;35.56;101436.31;5018644;28;20083;-64
2022/02/02 06:13:06;;;;;;;8.43;2.47;;;;;;;20.63;35.90;101415.84;5021889;28;20740;-63
2022/02/02 06:15:33;;;;;;;9.02;3.45;;;;;;;20.59;35.97;101426.94;5020281;28;20335;-64
2022/02/02 06:18:02;;;;;;;12.07;3.28;;;;;;;20.57;35.99;101424.47;5030233;28;20435;-64
2022/02/02 06:20:28;;;;;;;13.35;3.40;;;;;;;20.60;35.90;101428.59;5018979;28;20043;-63
2022/02/02 06:23:26;;;;;;;9.63;2.78;;;;;;;20.74;35.64;101431.38;5014167;28;20280;-64
2022/02/02 06:25:53;;;;;;;13.98;3.38;;;;;;;21.12;35.38;101431.53;5019815;28;20386;-64
2022/02/02 06:28:23;;;;;;;15.20;3.72;;;;;;;21.19;35.20;101439.63;5017596;28;24064;-63
2022/02/02 06:31:07;;;;;;;9.18;2.85;;;;;;;21.24;35.18;101442.56;5015527;28;20033;-63
2022/02/02 06:33:35;;;;;;;9.13;3.08;;;;;;;21.29;34.96;101445.53;5018194;28;20530;-63
2022/02/02 06:36:05;;;;;;;15.45;3.95;;;;;;;21.45;34.88;101458.69;5014263;28;20585;-63
2022/02/02 06:38:32;;;;;;;11.55;3.25;;;;;;;21.49;34.92;101465.28;5016209;28;20503;-63
2022/02/02 06:40:59;;;;;;;13.35;2.90;;;;;;;21.44;34.67;101466.81;5015743;28;20079;-63
2022/02/02 06:43:26;;;;;;;11.30;3.10;;;;;;;21.39;35.01;101464.72;5020916;28;20838;-63
2022/02/02 06:45:52;;;;;;;9.32;3.40;;;;;;;21.24;35.08;101464.63;5017183;28;20510;-63
2022/02/02 06:48:17;;;;;;;11.95;3.10;;;;;;;21.20;34.97;101468.59;5020204;28;20104;-63
2022/02/02 06:50:54;;;;;;;12.32;3.40;;;;;;;21.07;35.52;101471.78;5021025;28;20037;-63
2022/02/02 06:53:31;;;;;;;9.13;2.75;;;;;;;21.15;35.50;101489.44;5016763;28;20072;-63
2022/02/02 07:05:05;;;;;;;10.27;2.78;;;;;;;21.15;35.29;101504.50;5015744;28;20048;-64
2022/02/02 07:10:50;;;;;;;13.93;3.58;;;;;;;21.09;35.21;101508.69;5015933;28;20510;-63
2022/02/02 07:16:01;;;;;;;12.02;3.45;;;;;;;21.17;35.21;101505.16;5021742;28;20510;-64
2022/02/02 07:29:45;;;;;;;15.65;3.10;;;;;;;21.35;34.82;101537.56;5007071;28;20057;-64
2022/02/02 07:32:18;;;;;;;12.88;3.25;;;;;;;21.28;35.00;101545.38;5012344;28;20100;-64
2022/02/02 07:35:06;;;;;;;15.18;2.97;;;;;;;21.27;35.05;101551.69;5019774;28;20084;-64
2022/02/02 07:37:35;;;;;;;13.70;3.80;;;;;;;21.33;34.90;101566.06;5015418;28;20325;-64
2022/02/02 07:40:09;;;;;;;11.15;3.13;;;;;;;21.31;34.78;101568.06;5019906;28;20037;-63
2022/02/02 07:42:45;;;;;;;12.30;3.33;;;;;;;21.32;34.79;101567.88;5016508;28;20092;-64
2022/02/02 07:45:12;;;;;;;13.93;3.25;;;;;;;21.26;35.00;101563.28;5017446;28;20026;-64
2022/02/02 07:47:40;;;;;;;11.52;3.25;;;;;;;21.07;35.13;101537.97;5023213;28;20083;-63
2022/02/02 07:50:07;;;;;;;13.93;3.35;;;;;;;21.19;34.97;101577.34;5019931;28;20091;-64
2022/02/02 07:52:34;;;;;;;11.75;3.17;;;;;;;21.16;35.05;101578.50;5014986;28;20043;-63
2022/02/02 07:55:04;;;;;;;12.75;3.03;;;;;;;21.09;35.11;101585.47;5018254;28;20045;-64
2022/02/02 07:57:30;;;;;;;11.23;2.85;;;;;;;21.06;35.23;101591.13;5016994;28;20034;-64
2022/02/02 08:00:04;;;;;;;11.38;3.30;;;;;;;20.91;35.30;101574.28;5019352;28;20045;-64
2022/02/02 08:05:11;;;;;;;9.75;3.60;;;;;;;21.01;35.33;101590.81;5017739;28;20269;-64
2022/02/02 08:07:42;;;;;;;11.68;2.80;;;;;;;20.98;35.40;101589.31;5016929;28;20080;-64
2022/02/02 08:10:15;;;;;;;15.07;3.30;;;;;;;20.92;35.30;101589.16;5019984;28;20098;-64
2022/02/02 08:15:17;;;;;;;17.15;3.58;;;;;;;20.88;35.50;101591.31;5017002;28;20416;-64
2022/02/02 08:17:44;;;;;;;14.88;3.65;;;;;;;20.95;35.16;101586.16;5017728;28;20047;-64
2022/02/02 08:20:10;;;;;;;10.70;3.05;;;;;;;21.06;34.99;101597.25;5020546;28;20183;-64
2022/02/02 08:22:38;;;;;;;13.13;3.15;;;;;;;21.10;34.90;101606.50;5014816;28;20135;-64
2022/02/02 08:25:06;;;;;;;11.18;2.97;;;;;;;21.13;34.84;101610.63;5020383;28;20375;-64
2022/02/02 08:27:38;;;;;;;16.05;3.63;;;;;;;21.14;34.99;101609.63;5015564;28;20085;-64
2022/02/02 08:30:19;;;;;;;11.13;3.22;;;;;;;21.07;35.04;101621.91;5020221;28;20504;-64
2022/02/02 08:32:57;;;;;;;13.73;3.63;;;;;;;21.15;34.93;101623.69;5011269;28;20029;-64
2022/02/02 08:35:25;;;;;;;14.93;3.75;;;;;;;21.13;34.88;101627.34;5022035;28;20041;-64
2022/02/02 08:38:19;;;;;;;11.57;3.83;;;;;;;21.24;34.96;101625.34;5019135;28;20561;-64
2022/02/02 08:46:05;;;;;;;12.70;3.13;;;;;;;21.19;34.92;101628.50;5014044;28;20280;-64
2022/02/02 08:48:30;;;;;;;10.60;2.75;;;;;;;21.24;35.04;101635.94;5015759;28;20037;-63
2022/02/02 08:51:09;;;;;;;12.48;3.22;;;;;;;21.27;34.98;101640.91;5020593;28;20045;-64
2022/02/02 08:53:46;;;;;;;10.93;2.88;;;;;;;21.30;34.93;101648.53;5016947;28;20125;-63
2022/02/02 08:56:51;;;;;;;15.57;3.42;;;;;;;21.25;35.03;101659.63;5021591;28;20129;-63
2022/02/02 09:01:45;;;;;;;11.93;3.22;;;;;;;21.15;34.85;101674.84;5022480;28;20072;-64
2022/02/02 09:06:55;;;;;;;9.27;3.17;;;;;;;21.13;35.11;101676.84;5026450;28;20044;-64
2022/02/02 09:09:33;;;;;;;16.15;3.92;;;;;;;21.11;35.08;101692.91;5018905;28;20035;-64
2022/02/02 09:35:58;;;;;;;10.20;4.10;;;;;;;21.25;34.94;101722.38;5022002;28;20032;-63
2022/02/02 09:38:24;;;;;;;13.32;3.45;;;;;;;21.24;34.75;101716.25;5023784;28;20075;-64
2022/02/02 09:43:25;;;;;;;13.55;4.00;;;;;;;21.32;34.63;101718.88;5014125;28;20042;-64
2022/02/02 09:45:58;;;;;;;12.30;2.58;;;;;;;21.32;34.69;101718.06;5019722;28;20040;-63
2022/02/02 09:48:29;;;;;;;8.23;3.10;;;;;;;21.32;34.80;101723.34;5015062;28;20049;-64
2022/02/02 09:51:02;;;;;;;10.23;2.80;;;;;;;21.28;34.86;101733.47;5016281;28;20541;-64
2022/02/02 09:56:45;;;;;;;11.13;3.30;;;;;;;21.31;34.55;101742.91;5019181;28;20064;-64
2022/02/02 10:05:47;;;;;;;15.63;3.20;;;;;;;21.70;34.60;101745.63;5021768;28;20122;-69
2022/02/02 10:10:45;;;;;;;11.05;3.75;;;;;;;21.79;34.78;101759.72;5018660;28;20041;-68
2022/02/02 10:13:48;;;;;;;13.25;3.55;;;;;;;21.66;35.04;101776.13;5017494;28;20041;-64
2022/02/02 10:16:20;;;;;;;14.13;3.75;;;;;;;21.08;36.09;101769.22;4992550;28;20607;-61
2022/02/02 10:18:46;;;;;;;11.65;3.30;;;;;;;21.00;35.97;101785.06;5011971;28;20036;-62
2022/02/02 10:21:12;;;;;;;12.30;2.88;;;;;;;20.95;35.96;101785.56;5017924;28;20425;-62
2022/02/02 10:23:41;;;;;;;14.13;3.05;;;;;;;20.95;35.95;101790.88;4995847;28;20343;-64
2022/02/02 10:26:22;;;;;;;12.68;3.30;;;;;;;20.95;35.69;101796.16;5017287;28;20129;-64
2022/02/02 10:28:49;;;;;;;13.65;3.47;;;;;;;20.93;35.70;101803.44;4995826;28;20144;-64
2022/02/02 10:31:16;;;;;;;11.85;3.42;;;;;;;20.99;35.64;101804.59;5018487;28;20044;-61
2022/02/02 10:33:42;;;;;;;13.27;2.92;;;;;;;21.18;35.31;101806.94;4984043;28;20049;-62
2022/02/02 10:36:20;;;;;;;10.05;2.78;;;;;;;21.03;35.81;101808.59;5013738;28;20402;-62
2022/02/02 10:39:01;;;;;;;10.77;2.85;;;;;;;21.04;35.83;101805.78;4994784;28;20376;-63
2022/02/02 10:41:43;;;;;;;11.95;2.85;;;;;;;21.22;35.71;101810.94;5020899;28;20037;-64
2022/02/02 10:44:41;;;;;;;16.10;3.25;;;;;;;21.40;35.38;101810.81;4995042;28;20140;-71
2022/02/02 10:47:22;;;;;;;10.95;2.83;;;;;;;21.40;35.53;101816.09;5011926;28;20499;-69
2022/02/02 10:50:05;;;;;;;12.70;3.03;;;;;;;21.49;35.38;101816.91;4995388;28;20041;-68
2022/02/02 10:55:58;;;;;;;9.63;2.35;;;;;;;21.56;35.69;101823.22;5019447;28;20061;-69
2022/02/02 10:58:29;;;;;;;9.70;3.28;;;;;;;21.45;35.90;101808.47;5010332;28;20052;-70
2022/02/02 11:01:20;;;;;;;14.60;2.80;;;;;;;21.49;35.81;101816.91;4996629;28;20190;-71
2022/02/02 11:06:43;;;;;;;11.15;2.97;;;;;;;21.53;35.79;101808.44;4991703;28;20510;-68
2022/02/02 11:09:10;;;;;;;13.88;3.35;;;;;;;21.57;35.89;101819.56;5018545;28;20519;-71
2022/02/02 11:11:47;;;;;;;10.25;2.63;;;;;;;21.66;35.69;101827.31;4994327;28;20442;-64
2022/02/02 11:14:21;;;;;;;10.73;3.17;;;;;;;21.63;35.58;101834.78;5016164;28;20156;-70
2022/02/02 11:16:57;;;;;;;9.60;2.45;;;;;;;21.61;35.77;101842.91;4991292;28;20561;-72
2022/02/02 11:19:30;;;;;;;11.00;2.80;;;;;;;21.52;36.10;101830.66;5014777;28;20322;-73
2022/02/02 11:22:20;;;;;;;10.52;2.75;;;;;;;21.63;35.89;101848.88;4992276;28;20041;-72
2022/02/02 11:24:46;;;;;;;10.73;2.70;;;;;;;21.64;36.30;101844.41;5018942;28;20056;-72
2022/02/02 11:27:34;;;;;;;11.80;3.08;;;;;;;21.64;35.96;101853.19;5017866;28;20383;-71
2022/02/02 11:30:01;;;;;;;16.40;2.92;;;;;;;21.71;35.92;101854.16;5019380;28;20017;-73
2022/02/02 11:32:47;;;;;;;10.68;3.10;;;;;;;21.68;35.68;101851.84;5010954;28;20399;-72
2022/02/02 11:35:38;;;;;;;10.55;3.08;;;;;;;21.57;35.97;101860.16;5017726;28;20096;-61
2022/02/02 11:38:19;;;;;;;8.38;2.60;;;;;;;21.48;36.28;101849.69;4993280;28;20041;-61
2022/02/02 11:41:03;;;;;;;12.15;3.58;;;;;;;21.48;35.97;101866.44;5010771;28;20471;-61
2022/02/02 11:43:48;;;;;;;12.32;3.80;;;;;;;21.45;35.90;101880.00;5015370;28;20040;-62
2022/02/02 11:47:20;;;;;;;9.70;2.25;;;;;;;21.33;35.93;101846.88;4997329;28;20041;-62
2022/02/02 11:50:06;;;;;;;11.13;2.90;;;;;;;21.42;35.68;101880.34;4991241;28;21527;-61
2022/02/02 11:52:49;;;;;;;11.90;2.80;;;;;;;21.30;35.81;101874.53;5013530;28;20029;-61
2022/02/02 11:55:15;;;;;;;14.52;3.03;;;;;;;21.36;35.89;101886.28;4991571;28;20055;-61
2022/02/02 11:57:57;;;;;;;11.35;2.70;;;;;;;21.30;35.71;101879.00;5009665;28;20149;-61
2022/02/02 12:03:10;;;;;;;8.32;3.03;;;;;;;21.25;35.35;101886.63;4985758;28;20124;-63
2022/02/02 12:08:29;;;;;;;9.15;2.53;;;;;;;21.11;35.75;101888.88;4990721;28;20851;-61
2022/02/02 12:57:43;;;;;;;8.50;2.95;;;;;;;21.20;35.66;101908.28;5017633;28;20037;-62
2022/02/02 13:00:21;;;;;;;10.68;2.70;;;;;;;21.12;35.86;101905.59;4991898;28;20045;-62
2022/02/02 13:02:49;;;;;;;9.85;2.70;;;;;;;21.57;34.36;101901.72;5019123;28;20132;-76
2022/02/02 13:05:16;;;;;;;9.90;2.70;;;;;;;21.54;34.23;101876.34;5023618;28;20107;-73
2022/02/02 13:07:42;;;;;;;9.75;3.00;;;;;;;21.76;34.18;101897.91;4994598;28;20072;-69
2022/02/02 13:10:20;;;;;;;9.13;2.35;;;;;;;21.74;34.14;101898.09;5019301;28;20040;-70
2022/02/02 13:15:22;;;;;;;12.20;2.70;;;;;;;21.86;34.04;101893.25;5020868;28;20044;-73
2022/02/02 13:20:47;;;;;;;10.85;2.70;;;;;;;21.84;34.03;101890.78;5027827;28;20124;-67
2022/02/02 13:25:43;;;;;;;8.68;2.40;;;;;;;21.88;33.95;101897.38;5039529;28;20119;-70
2022/02/02 13:28:11;;;;;;;11.68;2.53;;;;;;;21.64;34.34;101897.41;4993641;28;20042;-62
2022/02/02 13:30:52;;;;;;;13.48;3.10;;;;;;;21.63;34.62;101896.59;5020476;28;20045;-62
2022/02/02 13:33:33;;;;;;;7.93;2.72;;;;;;;21.68;34.38;101898.72;4983540;28;20083;-66
2022/02/02 13:36:32;;;;;;;8.55;2.63;;;;;;;21.80;34.93;101904.53;5022957;28;20045;-68
2022/02/02 13:44:52;;;;;;;8.65;2.58;;;;;;;21.89;35.16;101920.25;4994042;28;20607;-72
2022/02/02 13:47:41;;;;;;;9.18;2.05;;;;;;;21.85;35.17;101918.13;5027824;28;20041;-72
2022/02/02 13:50:37;;;;;;;9.68;3.10;;;;;;;21.91;35.36;101925.41;5012488;28;20060;-68
2022/02/02 13:53:48;;;;;;;7.18;2.70;;;;;;;21.91;35.08;101915.63;5012507;28;20651;-71
2022/02/02 14:01:34;;;;;;;9.13;2.35;;;;;;;21.96;35.35;101931.88;5019047;28;20397;-72
2022/02/02 14:04:25;;;;;;;;;;;;;;;21.96;35.61;101933.69;4992531;28;20407;-66
2022/02/02 14:26:07;;;;;;;11.32;2.70;;;;;;;21.96;35.61;101929.22;5014828;28;20045;-67
2022/02/02 14:31:23;;;;;;;6.65;1.70;;;;;;;21.58;36.65;101937.84;5016694;28;20402;-63
2022/02/02 14:33:53;;;;;;;6.85;1.90;;;;;;;21.61;36.19;101943.63;4996068;28;20084;-63
2022/02/02 14:36:26;;;;;;;10.70;3.15;;;;;;;21.69;35.33;101943.63;5012243;28;20076;-62
2022/02/02 14:41:41;;;;;;;5.30;2.08;;;;;;;21.79;35.60;101946.13;5018254;28;20032;-70
2022/02/02 14:46:41;;;;;;;7.43;2.63;;;;;;;21.74;36.13;101937.84;5015809;28;20129;-67
2022/02/02 14:49:15;;;;;;;7.45;2.10;;;;;;;21.86;36.03;101936.50;4999942;28;20046;-70
2022/02/02 15:29:36;;;;;;;6.45;2.20;;;;;;;21.97;36.36;101985.75;4973977;28;20053;-71
2022/02/02 15:32:01;;;;;;;8.00;2.55;;;;;;;21.97;36.01;101985.75;5021403;28;20049;-69
2022/02/02 15:34:52;;;;;;;6.43;2.15;;;;;;;21.89;35.98;101975.13;5006064;28;20052;-68
2022/02/02 15:39:43;;;;;;;8.52;2.50;;;;;;;22.00;36.45;101993.34;4993426;28;20242;-71
2022/02/02 15:58:19;;;;;;;9.45;2.50;;;;;;;21.79;36.47;101998.34;5044222;28;20402;-63
2022/02/02 16:03:44;;;;;;;7.03;2.35;;;;;;;21.75;36.91;102013.75;5015450;28;20631;-63
2022/02/02 16:08:43;;;;;;;5.53;2.25;;;;;;;21.53;37.05;102009.03;4998136;28;20057;-63
2022/02/02 16:11:24;;;;;;;5.30;2.75;;;;;;;21.47;37.12;102007.88;5023788;28;20063;-62
2022/02/02 16:13:54;;;;;;;7.85;2.35;;;;;;;21.60;36.36;102016.19;5016960;28;20454;-62
2022/02/02 16:18:51;;;;;;;6.25;2.25;;;;;;;21.49;36.61;102000.59;5001693;28;20049;-63
2022/02/02 16:37:26;;;;;;;6.95;2.72;;;;;;;21.48;36.84;102022.78;5008243;28;20065;-62
2022/02/02 16:39:57;;;;;;;7.22;2.47;;;;;;;21.31;36.72;101990.13;5022280;28;20622;-63
2022/02/02 16:45:08;;;;;;;5.45;2.00;;;;;;;21.51;36.70;102018.97;5022860;28;20141;-63
2022/02/02 16:47:33;;;;;;;6.82;2.25;;;;;;;21.54;36.55;102024.78;5000510;28;20671;-62
2022/02/02 16:49:59;;;;;;;5.35;2.00;;;;;;;21.57;36.46;102019.19;5018478;28;20053;-63
2022/02/02 16:52:27;;;;;;;5.30;2.05;;;;;;;21.53;36.50;102017.00;4986657;28;20120;-62
2022/02/02 16:54:54;;;;;;;8.30;3.17;;;;;;;21.41;36.73;102012.00;5018969;28;20330;-63
2022/02/02 16:57:39;;;;;;;6.65;1.88;;;;;;;21.56;36.53;102027.28;5013855;28;20048;-62
2022/02/02 17:34:51;;;;;;;7.03;3.30;;;;;;;21.20;36.86;102030.13;4993995;28;20751;-63
2022/02/02 17:37:41;;;;;;;6.45;2.58;;;;;;;20.98;37.00;102018.25;5018532;28;20692;-63
2022/02/02 17:40:19;;;;;;;5.80;2.85;;;;;;;21.02;36.94;102040.81;4990275;28;20037;-63
2022/02/02 18:19:58;;;;;;;8.20;3.53;;;;;;;20.85;37.10;102028.47;4992031;28;20034;-63
2022/02/02 18:22:28;;;;;;;9.82;3.38;;;;;;;20.90;36.91;102030.66;5015037;28;20124;-63
2022/02/02 18:27:47;;;;;;;9.55;4.10;;;;;;;20.78;37.23;102022.97;5015657;28;20052;-63
2022/02/02 18:33:15;;;;;;;6.78;3.13;;;;;;;20.86;36.88;102032.78;5018248;28;20045;-64
2022/02/02 18:35:48;;;;;;;9.27;3.40;;;;;;;20.78;37.07;102027.44;4990754;28;20037;-66
2022/02/02 18:49:05;;;;;;;10.63;3.70;;;;;;;20.83;37.08;102025.16;5022234;28;20037;-63
2022/02/02 18:52:02;;;;;;;10.25;3.45;;;;;;;20.69;37.10;102009.84;4987494;28;20564;-63
2022/02/02 18:57:32;;;;;;;10.27;3.78;;;;;;;20.69;37.22;102023.09;4989862;28;20858;-63
2022/02/02 19:00:18;;;;;;;10.15;3.83;;;;;;;20.79;36.92;102013.19;5013275;28;20131;-64
2022/02/02 19:08:08;;;;;;;8.02;3.50;;;;;;;20.62;37.26;102016.75;4993178;28;20041;-63
2022/02/02 19:56:49;;;;;;;7.55;3.42;;;;;;;20.70;36.96;101993.81;4988467;28;20099;-65
2022/02/02 20:09:51;;;;;;;8.23;3.50;;;;;;;21.17;36.28;101985.41;5011059;28;20487;-65
2022/02/02 20:12:13;;;;;;;7.65;3.92;;;;;;;21.08;36.33;101981.06;4989743;28;20068;-64
2022/02/02 20:14:41;;;;;;;7.88;3.75;;;;;;;21.14;36.21;101983.06;5014901;28;20117;-63
2022/02/02 20:17:10;;;;;;;9.10;3.38;;;;;;;21.08;36.30;101979.25;4972865;28;20092;-64
2022/02/02 20:19:39;;;;;;;11.70;3.20;;;;;;;21.04;36.40;101974.44;4983130;28;20550;-63
2022/02/02 20:22:05;;;;;;;9.88;3.50;;;;;;;21.07;36.29;101977.59;4985795;28;20395;-64
2022/02/02 20:24:38;;;;;;;9.77;3.47;;;;;;;21.06;36.58;101980.41;5011858;28;20115;-65
2022/02/02 20:27:05;;;;;;;9.30;4.18;;;;;;;21.08;36.52;101983.72;5013092;28;20090;-64
2022/02/02 20:29:32;;;;;;;10.38;3.60;;;;;;;21.05;36.40;101979.59;5008458;28;20045;-69
2022/02/02 20:32:01;;;;;;;8.23;3.47;;;;;;;21.37;36.11;101981.53;5017419;28;20407;-73
2022/02/02 20:34:26;;;;;;;10.82;3.33;;;;;;;21.42;36.30;101965.97;5011539;28;20365;-75
2022/02/02 20:36:52;;;;;;;9.63;3.58;;;;;;;21.48;36.35;101971.59;5018351;28;20404;-73
2022/02/02 20:39:38;;;;;;;11.50;3.83;;;;;;;21.49;36.74;101965.31;4999995;28;20449;-71
2022/02/02 20:42:06;;;;;;;11.07;3.55;;;;;;;21.52;36.39;101963.16;5010402;28;20597;-70
2022/02/02 21:00:19;;;;;;;10.93;3.42;;;;;;;21.63;36.30;101960.19;4991821;28;20068;-74
2022/02/02 21:00:20;;;;;;;9.32;3.60;;;;;;;21.66;36.52;101969.66;5017801;28;20041;-69
2022/02/02 21:03:42;;;;;;;8.88;4.25;;;;;;;21.70;36.76;101963.84;4994003;28;20057;-69
2022/02/02 21:08:59;;;;;;;11.25;3.65;;;;;;;21.81;36.47;101949.44;4984457;28;20041;-70
2022/02/02 21:14:09;;;;;;;12.32;3.67;;;;;;;21.80;36.55;101954.91;5012284;28;20041;-68
2022/02/02 21:16:38;;;;;;;8.18;3.40;;;;;;;21.83;36.61;101949.28;5028171;28;20077;-69
2022/02/02 21:19:07;;;;;;;11.27;3.63;;;;;;;21.84;36.42;101937.66;4983959;28;20095;-66
2022/02/02 21:21:46;;;;;;;8.85;3.40;;;;;;;21.74;36.85;101944.97;5013454;28;20045;-67
2022/02/02 21:29:21;;;;;;;7.72;3.63;;;;;;;21.83;36.56;101947.44;4991770;28;20052;-71
2022/02/02 21:31:47;;;;;;;6.90;3.72;;;;;;;21.88;36.48;101952.25;5016885;28;20211;-71
2022/02/02 21:34:12;;;;;;;6.40;3.00;;;;;;;21.93;36.69;101957.91;4990751;28;20045;-73
2022/02/02 21:36:38;;;;;;;9.95;3.47;;;;;;;21.92;36.50;101946.47;5017079;28;20495;-73
2022/02/02 21:39:05;;;;;;;11.95;4.55;;;;;;;21.91;36.58;101946.63;4996429;28;20787;-77
2022/02/02 21:41:36;;;;;;;9.45;3.63;;;;;;;21.94;36.81;101946.28;5017190;28;20041;-74
2022/02/02 21:44:04;;;;;;;10.43;3.47;;;;;;;21.93;36.83;101945.47;4996761;28;20044;-71
2022/02/02 21:46:30;;;;;;;11.43;4.28;;;;;;;21.98;36.75;101942.31;5008032;28;20055;-68
2022/02/02 21:48:59;;;;;;;8.65;3.72;;;;;;;21.94;36.44;101946.28;5007096;28;20034;-69
2022/02/02 21:51:31;;;;;;;11.23;3.38;;;;;;;21.95;36.91;101940.81;4993210;28;20041;-69
2022/02/02 21:53:57;;;;;;;9.45;3.30;;;;;;;21.99;36.65;101942.13;5014190;28;20045;-73
2022/02/02 21:56:23;;;;;;;12.20;4.70;;;;;;;21.96;37.06;101937.19;4992270;28;20423;-70
2022/02/02 21:58:49;;;;;;;10.13;3.92;;;;;;;22.02;36.64;101931.19;5009259;28;20656;-73
2022/02/02 22:01:15;;;;;;;11.60;3.95;;;;;;;21.99;36.86;101931.53;4978407;28;20596;-69
2022/02/02 22:03:41;;;;;;;10.50;3.88;;;;;;;22.05;36.69;101927.41;5015891;28;20036;-72
2022/02/02 22:06:06;;;;;;;9.15;4.25;;;;;;;22.08;36.53;101935.03;4994201;28;20044;-68
2022/02/02 22:08:32;;;;;;;5.57;3.30;;;;;;;22.06;36.79;101941.50;5013706;28;20801;-70
2022/02/02 22:10:58;;;;;;;9.32;3.60;;;;;;;22.06;37.04;101939.66;4989269;28;20057;-68
2022/02/02 22:13:33;;;;;;;9.88;3.92;;;;;;;22.09;36.58;101942.00;5015104;28;20041;-70
2022/02/02 22:16:04;;;;;;;14.23;3.88;;;;;;;22.09;36.63;101930.56;5002436;28;20468;-74
2022/02/02 22:18:30;;;;;;;10.55;3.80;;;;;;;22.12;36.41;101932.88;5009528;28;20051;-69
2022/02/02 22:20:56;;;;;;;9.35;3.97;;;;;;;22.11;36.68;101929.41;5031565;28;20045;-72
2022/02/02 22:23:23;;;;;;;8.48;3.35;;;;;;;22.13;36.57;101927.41;4976544;28;20037;-71
2022/02/02 22:25:49;;;;;;;9.80;3.72;;;;;;;22.00;36.45;101906.66;5018043;28;20043;-70
2022/02/02 22:28:15;;;;;;;7.72;3.95;;;;;;;22.15;36.79;101921.94;4984540;28;20554;-68
2022/02/02 22:30:40;;;;;;;8.25;3.92;;;;;;;22.14;36.82;101914.97;5008753;28;20045;-72